createdAt,value
2023-01-02T00:01:21.908Z,97622.34
2023-01-02T00:03:48.305Z,97613.22
2023-01-02T00:06:14.666Z,97612.41
2023-01-02T00:08:40.908Z,97630.84
2023-01-02T00:11:07.315Z,97627.06
2023-01-02T00:13:33.583Z,97624.13
2023-01-02T00:16:00.003Z,97632.91
2023-01-02T00:18:26.341Z,97625.44
2023-01-02T00:20:52.670Z,97628.88
2023-01-02T00:23:18.949Z,97625.91
2023-01-02T00:25:45.301Z,97612.25
2023-01-02T00:28:11.589Z,97605.56
2023-01-02T00:30:38.595Z,97595.63
2023-01-02T00:33:05.113Z,97601.50
2023-01-02T00:35:31.795Z,97585.44
2023-01-02T00:37:58.139Z,97592.13
2023-01-02T00:40:24.716Z,97595.56
2023-01-02T00:42:50.999Z,97587.50
2023-01-02T00:45:17.342Z,97578.38
2023-01-02T00:47:43.703Z,97571.41
2023-01-02T00:50:09.990Z,97563.94
2023-01-02T00:52:36.252Z,97564.69
2023-01-02T00:55:02.900Z,97557.97
2023-01-02T00:57:29.232Z,97551.53
2023-01-02T00:59:55.570Z,97559.25
2023-01-02T01:02:21.959Z,97556.28
2023-01-02T01:04:48.363Z,97559.47
2023-01-02T01:07:14.657Z,97558.09
2023-01-02T01:09:40.931Z,97554.06
2023-01-02T01:12:07.322Z,97549.25
2023-01-02T01:14:33.566Z,97557.78
2023-01-02T01:16:59.871Z,97546.56
2023-01-02T01:19:26.197Z,97534.53
2023-01-02T01:21:52.600Z,97545.69
2023-01-02T01:24:19.349Z,97538.75
2023-01-02T01:26:45.638Z,97536.63
2023-01-02T01:29:11.949Z,97554.19
2023-01-02T01:31:41.246Z,97551.78
2023-01-02T01:34:07.545Z,97538.94
2023-01-02T01:36:34.271Z,97539.19
2023-01-02T01:39:00.756Z,97537.03
2023-01-02T01:41:27.036Z,97542.63
2023-01-02T01:43:53.340Z,97553.81
2023-01-02T01:46:19.758Z,97561.28
2023-01-02T01:48:46.032Z,97542.84
2023-01-02T01:51:12.307Z,97545.22
2023-01-02T01:53:39.334Z,97543.59
2023-01-02T01:56:06.724Z,97543.03
2023-01-02T01:58:35.952Z,97524.88
2023-01-02T02:01:02.317Z,97538.47
2023-01-02T02:03:28.692Z,97538.72
2023-01-02T02:05:55.342Z,97542.44
2023-01-02T02:08:21.598Z,97541.34
2023-01-02T02:10:47.884Z,97547.72
2023-01-02T02:13:14.226Z,97546.38
2023-01-02T02:15:40.603Z,97546.66
2023-01-02T02:18:07.656Z,97555.69
2023-01-02T02:20:33.906Z,97542.03
2023-01-02T02:23:00.399Z,97544.16
2023-01-02T02:25:26.781Z,97535.38
2023-01-02T02:27:53.144Z,97529.44
2023-01-02T02:30:19.455Z,97541.97
2023-01-02T02:32:45.853Z,97530.75
2023-01-02T02:35:12.738Z,97533.66
2023-01-02T02:37:39.519Z,97541.91
2023-01-02T02:40:05.830Z,97540.56
2023-01-02T02:42:32.173Z,97545.34
2023-01-02T02:44:58.476Z,97536.81
2023-01-02T02:47:24.717Z,97536.81
2023-01-02T02:49:50.995Z,97535.16
2023-01-02T02:52:17.266Z,97534.09
2023-01-02T02:54:43.622Z,97537.78
2023-01-02T02:57:09.960Z,97524.72
2023-01-02T02:59:36.807Z,97536.19
2023-01-02T03:02:03.185Z,97520.66
2023-01-02T03:04:29.633Z,97514.56
2023-01-02T03:06:55.940Z,97503.34
2023-01-02T03:09:23.067Z,97513.44
2023-01-02T03:11:49.480Z,97516.34
2023-01-02T03:14:15.747Z,97513.94
2023-01-02T03:16:42.254Z,97516.88
2023-01-02T03:19:08.727Z,97529.63
2023-01-02T03:21:34.967Z,97517.34
2023-01-02T03:24:01.512Z,97514.16
2023-01-02T03:26:27.807Z,97515.19
2023-01-02T03:28:54.075Z,97518.09
2023-01-02T03:31:20.316Z,97507.69
2023-01-02T03:33:46.590Z,97515.94
2023-01-02T03:36:12.902Z,97513.53
2023-01-02T03:38:39.218Z,97520.97
2023-01-02T03:41:05.475Z,97525.50
2023-01-02T03:43:31.805Z,97515.91
2023-01-02T03:45:58.105Z,97519.84
2023-01-02T03:48:24.427Z,97529.69
2023-01-02T03:50:50.683Z,97527.53
2023-01-02T03:53:16.954Z,97530.22
2023-01-02T03:55:43.201Z,97521.66
2023-01-02T03:58:09.859Z,97524.56
2023-01-02T04:00:36.257Z,97525.63
2023-01-02T04:03:02.566Z,97522.97
2023-01-02T04:05:29.114Z,97525.88
2023-01-02T04:07:55.412Z,97532.25
2023-01-02T04:10:22.079Z,97518.13
2023-01-02T04:12:48.268Z,97506.69
2023-01-02T04:15:14.632Z,97513.84
2023-01-02T04:17:41.161Z,97532.50
2023-01-02T04:20:07.769Z,97514.09
2023-01-02T04:22:34.063Z,97519.69
2023-01-02T04:25:00.563Z,97510.88
2023-01-02T04:27:29.938Z,97516.47
2023-01-02T04:29:56.461Z,97512.97
2023-01-02T04:32:22.689Z,97523.09
2023-01-02T04:34:50.878Z,97518.00
2023-01-02T04:37:18.741Z,97518.00
2023-01-02T04:39:45.963Z,97529.72
2023-01-02T04:42:12.213Z,97528.09
2023-01-02T04:44:38.533Z,97518.50
2023-01-02T04:47:04.792Z,97519.53
2023-01-02T04:49:31.124Z,97513.69
2023-01-02T04:51:57.362Z,97519.78
2023-01-02T04:54:23.583Z,97536.03
2023-01-02T04:56:49.879Z,97520.06
2023-01-02T04:59:16.430Z,97523.22
2023-01-02T05:01:43.363Z,97551.69
2023-01-02T05:04:09.688Z,97549.03
2023-01-02T05:06:36.366Z,97551.97
2023-01-02T05:09:02.611Z,97553.03
2023-01-02T05:11:28.833Z,97565.53
2023-01-02T05:13:55.222Z,97549.78
2023-01-02T05:16:21.503Z,97563.13
2023-01-02T05:18:48.608Z,97568.44
2023-01-02T05:21:15.771Z,97540.16
2023-01-02T05:23:42.038Z,97565.22
2023-01-02T05:26:08.439Z,97577.72
2023-01-02T05:28:38.545Z,97576.94
2023-01-02T05:31:06.026Z,97577.97
2023-01-02T05:33:32.447Z,97570.22
2023-01-02T05:35:59.445Z,97581.69
2023-01-02T05:38:26.151Z,97574.72
2023-01-02T05:40:54.575Z,97575.81
2023-01-02T05:43:21.139Z,97572.53
2023-01-02T05:45:47.430Z,97590.38
2023-01-02T05:48:15.938Z,97578.94
2023-01-02T05:50:42.439Z,97582.63
2023-01-02T05:53:09.564Z,97591.69
2023-01-02T05:55:35.804Z,97582.88
2023-01-02T05:58:02.105Z,97589.28
2023-01-02T06:00:28.453Z,97590.31
2023-01-02T06:02:57.071Z,97585.22
2023-01-02T06:05:24.767Z,97587.06
2023-01-02T06:07:51.887Z,97588.94
2023-01-02T06:10:18.187Z,97589.16
2023-01-02T06:12:44.547Z,97580.38
2023-01-02T06:15:10.880Z,97580.38
2023-01-02T06:17:37.142Z,97600.06
2023-01-02T06:20:03.441Z,97593.16
2023-01-02T06:22:30.506Z,97583.53
2023-01-02T06:24:57.977Z,97608.56
2023-01-02T06:27:24.283Z,97591.75
2023-01-02T06:29:50.528Z,97604.28
2023-01-02T06:32:16.884Z,97598.41
2023-01-02T06:34:43.978Z,97587.75
2023-01-02T06:37:10.883Z,97595.97
2023-01-02T06:39:37.291Z,97605.00
2023-01-02T06:42:04.456Z,97606.06
2023-01-02T06:44:31.030Z,97598.31
2023-01-02T06:46:57.437Z,97611.63
2023-01-02T06:49:23.737Z,97601.22
2023-01-02T06:51:50.351Z,97606.56
2023-01-02T06:54:17.346Z,97602.25
2023-01-02T06:56:43.907Z,97613.16
2023-01-02T06:59:10.879Z,97598.47
2023-01-02T07:01:38.189Z,97609.13
2023-01-02T07:04:04.556Z,97601.94
2023-01-02T07:06:32.922Z,97616.31
2023-01-02T07:08:59.208Z,97603.00
2023-01-02T07:11:27.764Z,97603.47
2023-01-02T07:13:54.063Z,97615.75
2023-01-02T07:16:20.902Z,97619.44
2023-01-02T07:18:48.035Z,97620.50
2023-01-02T07:21:14.293Z,97635.75
2023-01-02T07:23:41.181Z,97630.66
2023-01-02T07:26:11.319Z,97630.44
2023-01-02T07:28:38.898Z,97638.41
2023-01-02T07:31:05.294Z,97646.03
2023-01-02T07:33:31.605Z,97643.28
2023-01-02T07:35:58.245Z,97655.94
2023-01-02T07:38:25.170Z,97660.03
2023-01-02T07:40:51.450Z,97656.13
2023-01-02T07:43:17.875Z,97663.13
2023-01-02T07:45:49.688Z,97660.28
2023-01-02T07:48:16.540Z,97656.88
2023-01-02T07:50:43.970Z,97659.59
2023-01-02T07:53:10.826Z,97663.41
2023-01-02T07:55:37.948Z,97667.19
2023-01-02T07:58:04.394Z,97656.56
2023-01-02T08:00:31.285Z,97655.03
2023-01-02T08:02:57.713Z,97644.66
2023-01-02T08:05:24.410Z,97630.78
2023-01-02T08:07:50.672Z,97649.78
2023-01-02T08:10:16.993Z,97658.09
2023-01-02T08:12:43.747Z,97661.88
2023-01-02T08:15:10.774Z,97651.75
2023-01-02T08:17:37.126Z,97663.56
2023-01-02T08:20:07.953Z,97655.28
2023-01-02T08:22:35.233Z,97659.56
2023-01-02T08:25:01.606Z,97657.44
2023-01-02T08:27:28.138Z,97648.38
2023-01-02T08:29:54.393Z,97636.66
2023-01-02T08:32:21.008Z,97647.06
2023-01-02T08:34:47.307Z,97648.94
2023-01-02T08:37:13.638Z,97668.44
2023-01-02T08:39:40.837Z,97675.38
2023-01-02T08:42:08.706Z,97680.72
2023-01-02T08:44:34.952Z,97687.41
2023-01-02T08:47:01.264Z,97670.34
2023-01-02T08:49:27.732Z,97670.09
2023-01-02T08:51:54.485Z,97660.22
2023-01-02T08:54:21.298Z,97675.19
2023-01-02T08:56:47.562Z,97668.78
2023-01-02T08:59:13.884Z,97675.97
2023-01-02T09:01:40.611Z,97665.06
2023-01-02T09:04:11.887Z,97669.09
2023-01-02T09:06:38.581Z,97673.13
2023-01-02T09:09:11.014Z,97675.78
2023-01-02T09:11:38.500Z,97674.72
2023-01-02T09:14:05.548Z,97673.91
2023-01-02T09:16:32.094Z,97681.69
2023-01-02T09:18:58.942Z,97693.41
2023-01-02T09:21:25.202Z,97696.66
2023-01-02T09:23:51.462Z,97698.25
2023-01-02T09:26:17.829Z,97692.69
2023-01-02T09:28:44.097Z,97683.59
2023-01-02T09:31:12.502Z,97694.03
2023-01-02T09:33:39.088Z,97691.91
2023-01-02T09:36:05.396Z,97690.84
2023-01-02T09:38:31.797Z,97680.16
2023-01-02T09:40:58.131Z,97688.16
2023-01-02T09:43:24.379Z,97697.81
2023-01-02T09:45:51.460Z,97704.75
2023-01-02T09:48:17.723Z,97705.31
2023-01-02T09:50:44.335Z,97696.78
2023-01-02T09:53:11.067Z,97712.31
2023-01-02T09:55:37.404Z,97709.13
2023-01-02T09:58:04.392Z,97709.44
2023-01-02T10:00:30.738Z,97712.66
2023-01-02T10:02:59.371Z,97719.38
2023-01-02T10:05:27.783Z,97719.94
2023-01-02T10:07:54.144Z,97709.00
2023-01-02T10:10:20.409Z,97712.47
2023-01-02T10:12:46.636Z,97711.66
2023-01-02T10:15:12.963Z,97710.88
2023-01-02T10:17:39.467Z,97713.28
2023-01-02T10:20:05.852Z,97707.94
2023-01-02T10:22:32.101Z,97715.69
2023-01-02T10:24:58.584Z,97710.38
2023-01-02T10:27:25.584Z,97717.31
2023-01-02T10:29:51.903Z,97712.50
2023-01-02T10:32:18.988Z,97708.25
2023-01-02T10:34:45.247Z,97699.97
2023-01-02T10:37:11.598Z,97712.50
2023-01-02T10:39:37.824Z,97708.78
2023-01-02T10:42:04.148Z,97706.91
2023-01-02T10:44:30.523Z,97706.91
2023-01-02T10:47:05.216Z,97709.31
2023-01-02T10:49:34.099Z,97700.25
2023-01-02T10:52:00.411Z,97703.50
2023-01-02T10:54:27.097Z,97715.78
2023-01-02T10:56:53.382Z,97718.44
2023-01-02T10:59:20.729Z,97708.31
2023-01-02T11:01:47.114Z,97724.91
2023-01-02T11:04:13.577Z,97715.25
2023-01-02T11:06:40.137Z,97710.72
2023-01-02T11:09:07.023Z,97716.06
2023-01-02T11:11:34.017Z,97716.06
2023-01-02T11:14:00.299Z,97709.66
2023-01-02T11:16:26.694Z,97721.97
2023-01-02T11:18:53.021Z,97717.44
2023-01-02T11:21:19.309Z,97722.78
2023-01-02T11:23:45.549Z,97726.25
2023-01-02T11:26:11.920Z,97722.78
2023-01-02T11:28:38.218Z,97724.66
2023-01-02T11:31:05.292Z,97717.69
2023-01-02T11:33:31.968Z,97723.84
2023-01-02T11:35:58.276Z,97727.31
2023-01-02T11:38:30.054Z,97727.31
2023-01-02T11:40:57.208Z,97724.66
2023-01-02T11:43:24.498Z,97727.88
2023-01-02T11:45:50.896Z,97722.53
2023-01-02T11:48:17.266Z,97729.47
2023-01-02T11:50:43.504Z,97727.63
2023-01-02T11:53:09.765Z,97725.75
2023-01-02T11:55:36.045Z,97709.72
2023-01-02T11:58:02.358Z,97722.00
2023-01-02T12:00:28.650Z,97728.19
2023-01-02T12:02:56.200Z,97737.25
2023-01-02T12:05:22.572Z,97740.97
2023-01-02T12:07:48.835Z,97745.50
2023-01-02T12:10:15.118Z,97751.69
2023-01-02T12:12:41.484Z,97744.69
2023-01-02T12:15:08.735Z,97759.13
2023-01-02T12:17:35.150Z,97766.09
2023-01-02T12:20:05.477Z,97789.09
2023-01-02T12:22:32.318Z,97783.75
2023-01-02T12:24:59.036Z,97784.31
2023-01-02T12:27:25.410Z,97797.41
2023-01-02T12:29:51.735Z,97806.25
2023-01-02T12:32:18.021Z,97818.81
2023-01-02T12:34:45.142Z,97816.94
2023-01-02T12:37:11.493Z,97818.53
2023-01-02T12:39:37.749Z,97813.19
2023-01-02T12:42:04.596Z,97826.56
2023-01-02T12:44:33.775Z,97836.19
2023-01-02T12:47:00.426Z,97837.81
2023-01-02T12:49:26.707Z,97843.97
2023-01-02T12:51:56.104Z,97850.09
2023-01-02T12:54:22.415Z,97839.97
2023-01-02T12:56:49.000Z,97845.31
2023-01-02T12:59:15.233Z,97844.25
2023-01-02T13:01:42.484Z,97848.00
2023-01-02T13:04:08.774Z,97864.84
2023-01-02T13:06:45.085Z,97861.09
2023-01-02T13:09:16.905Z,97867.25
2023-01-02T13:11:48.223Z,97868.88
2023-01-02T13:14:15.133Z,97861.91
2023-01-02T13:16:41.437Z,97856.56
2023-01-02T13:19:07.788Z,97860.06
2023-01-02T13:21:34.524Z,97868.06
2023-01-02T13:24:00.897Z,97874.47
2023-01-02T13:26:27.160Z,97869.38
2023-01-02T13:28:53.514Z,97876.59
2023-01-02T13:31:45.502Z,97876.06
2023-01-02T13:34:06.580Z,97865.59
2023-01-02T13:36:32.859Z,97874.69
2023-01-02T13:39:00.020Z,97882.69
2023-01-02T13:41:26.557Z,97889.91
2023-01-02T13:43:53.389Z,97881.09
2023-01-02T13:46:53.492Z,97882.94
2023-01-02T13:49:06.505Z,97890.16
2023-01-02T13:51:33.031Z,97894.69
2023-01-02T13:53:59.431Z,97897.63
2023-01-02T13:56:25.707Z,97896.00
2023-01-02T13:58:51.961Z,97895.44
2023-01-02T14:01:18.329Z,97890.09
2023-01-02T14:03:45.140Z,97889.53
2023-01-02T14:06:11.461Z,97905.84
2023-01-02T14:08:40.762Z,97908.50
2023-01-02T14:11:07.803Z,97916.78
2023-01-02T14:13:34.569Z,97922.38
2023-01-02T14:16:00.809Z,97926.09
2023-01-02T14:18:30.328Z,97925.31
2023-01-02T14:20:57.041Z,97926.34
2023-01-02T14:23:23.327Z,97934.63
2023-01-02T14:25:50.905Z,97936.47
2023-01-02T14:28:17.306Z,97937.53
2023-01-02T14:30:43.853Z,97943.13
2023-01-02T14:33:10.120Z,97945.00
2023-01-02T14:35:36.574Z,97945.00
2023-01-02T14:38:02.825Z,97938.28
2023-01-02T14:40:29.749Z,97938.28
2023-01-02T14:42:56.447Z,97945.50
2023-01-02T14:45:23.637Z,97951.88
2023-01-02T14:47:49.901Z,97957.22
2023-01-02T14:50:17.531Z,97954.56
2023-01-02T14:52:43.835Z,97963.38
2023-01-02T14:55:10.043Z,97961.28
2023-01-02T14:57:37.418Z,97962.09
2023-01-02T15:00:03.726Z,97963.72
2023-01-02T15:02:30.877Z,97971.22
2023-01-02T15:04:57.249Z,97982.72
2023-01-02T15:07:23.478Z,97982.47
2023-01-02T15:09:50.562Z,97982.47
2023-01-02T15:12:16.801Z,97977.13
2023-01-02T15:14:43.128Z,97986.78
2023-01-02T15:17:09.408Z,97981.44
2023-01-02T15:19:35.679Z,97991.31
2023-01-02T15:22:01.936Z,97974.44
2023-01-02T15:24:28.256Z,97967.50
2023-01-02T15:26:54.539Z,97965.09
2023-01-02T15:29:21.379Z,97971.22
2023-01-02T15:31:47.648Z,97969.59
2023-01-02T15:34:13.869Z,97978.66
2023-01-02T15:36:40.150Z,97988.56
2023-01-02T15:39:06.568Z,97984.25
2023-01-02T15:41:34.004Z,97988.00
2023-01-02T15:44:00.263Z,97988.00
2023-01-02T15:46:26.600Z,98004.28
2023-01-02T15:48:52.877Z,98001.06
2023-01-02T15:51:19.153Z,97999.97
2023-01-02T15:53:46.054Z,98004.53
2023-01-02T15:56:12.307Z,98026.97
2023-01-02T15:58:38.593Z,98022.44
2023-01-02T16:01:05.567Z,98016.53
2023-01-02T16:04:00.299Z,98014.91
2023-01-02T16:06:18.178Z,98023.72
2023-01-02T16:08:45.425Z,98025.03
2023-01-02T16:11:12.644Z,98041.06
2023-01-02T16:13:38.922Z,98039.44
2023-01-02T16:16:15.808Z,98036.75
2023-01-02T16:18:43.331Z,98032.44
2023-01-02T16:21:09.650Z,98026.53
2023-01-02T16:23:36.537Z,98045.50
2023-01-02T16:26:02.819Z,98039.59
2023-01-02T16:28:35.965Z,98037.72
2023-01-02T16:31:03.104Z,98038.75
2023-01-02T16:33:30.064Z,98040.91
2023-01-02T16:36:00.528Z,98039.25
2023-01-02T16:38:27.348Z,98047.53
2023-01-02T16:41:01.458Z,98052.06
2023-01-02T16:43:28.850Z,98046.97
2023-01-02T16:45:55.175Z,98055.22
2023-01-02T16:48:21.506Z,98060.56
2023-01-02T16:50:47.889Z,98066.97
2023-01-02T16:53:14.137Z,98071.50
2023-01-02T16:55:40.441Z,98072.31
2023-01-02T16:58:07.605Z,98067.75
2023-01-02T17:00:39.765Z,98071.25
2023-01-02T17:03:09.659Z,98083.53
2023-01-02T17:05:36.009Z,98082.50
2023-01-02T17:08:02.348Z,98087.34
2023-01-02T17:10:28.623Z,98088.16
2023-01-02T17:12:55.121Z,98097.53
2023-01-02T17:15:21.402Z,98096.25
2023-01-02T17:17:51.617Z,98088.25
2023-01-02T17:20:18.603Z,98100.31
2023-01-02T17:22:44.870Z,98105.41
2023-01-02T17:25:11.399Z,98110.53
2023-01-02T17:27:37.660Z,98114.81
2023-01-02T17:30:04.098Z,98111.91
2023-01-02T17:32:30.438Z,98119.91
2023-01-02T17:35:03.728Z,98122.38
2023-01-02T17:37:30.113Z,98123.16
2023-01-02T17:39:56.349Z,98118.63
2023-01-02T17:42:23.547Z,98127.47
2023-01-02T17:44:49.790Z,98122.91
2023-01-02T17:47:56.934Z,98137.09
2023-01-02T17:50:02.337Z,98131.75
2023-01-02T17:52:28.735Z,98142.44
2023-01-02T17:54:57.025Z,98142.44
2023-01-02T17:57:23.523Z,98137.09
2023-01-02T17:59:49.772Z,98143.25
2023-01-02T18:02:16.223Z,98145.09
2023-01-02T18:04:42.979Z,98129.31
2023-01-02T18:07:09.306Z,98142.69
2023-01-02T18:09:35.590Z,98144.78
2023-01-02T18:12:01.791Z,98142.13
2023-01-02T18:14:28.669Z,98139.69
2023-01-02T18:16:55.061Z,98154.13
2023-01-02T18:19:21.402Z,98154.13
2023-01-02T18:21:47.751Z,98158.84
2023-01-02T18:24:14.175Z,98169.53
2023-01-02T18:26:40.521Z,98173.50
2023-01-02T18:29:10.118Z,98180.94
2023-01-02T18:31:36.629Z,98191.63
2023-01-02T18:34:02.956Z,98186.53
2023-01-02T18:36:29.266Z,98187.59
2023-01-02T18:38:55.547Z,98201.19
2023-01-02T18:41:22.662Z,98200.38
2023-01-02T18:43:49.004Z,98218.50
2023-01-02T18:46:15.619Z,98221.41
2023-01-02T18:48:41.949Z,98223.53
2023-01-02T18:51:08.735Z,98236.88
2023-01-02T18:53:35.094Z,98232.59
2023-01-02T18:56:01.389Z,98235.47
2023-01-02T18:58:30.487Z,98230.38
2023-01-02T19:00:56.844Z,98235.16
2023-01-02T19:03:23.164Z,98237.28
2023-01-02T19:05:49.432Z,98243.41
2023-01-02T19:08:15.710Z,98242.63
2023-01-02T19:10:42.641Z,98246.91
2023-01-02T19:13:09.285Z,98247.47
2023-01-02T19:15:35.572Z,98256.06
2023-01-02T19:18:01.896Z,98255.81
2023-01-02T19:20:28.168Z,98267.88
2023-01-02T19:22:54.655Z,98271.13
2023-01-02T19:25:20.887Z,98285.88
2023-01-02T19:27:47.406Z,98283.78
2023-01-02T19:30:20.524Z,98293.41
2023-01-02T19:32:47.736Z,98290.50
2023-01-02T19:35:14.477Z,98289.47
2023-01-02T19:37:40.776Z,98289.47
2023-01-02T19:40:07.087Z,98300.94
2023-01-02T19:42:33.375Z,98301.75
2023-01-02T19:44:59.643Z,98289.47
2023-01-02T19:47:25.936Z,98301.19
2023-01-02T19:49:52.248Z,98301.19
2023-01-02T19:52:19.444Z,98309.19
2023-01-02T19:54:45.729Z,98326.28
2023-01-02T19:57:12.033Z,98328.13
2023-01-02T19:59:43.558Z,98331.88
2023-01-02T20:02:10.413Z,98325.72
2023-01-02T20:04:38.988Z,98322.47
2023-01-02T20:07:05.490Z,98330.47
2023-01-02T20:09:32.048Z,98337.91
2023-01-02T20:12:01.328Z,98329.09
2023-01-02T20:14:32.144Z,98348.16
2023-01-02T20:16:58.684Z,98346.94
2023-01-02T20:19:25.299Z,98351.22
2023-01-02T20:21:51.763Z,98364.16
2023-01-02T20:24:18.006Z,98381.84
2023-01-02T20:26:44.329Z,98378.16
2023-01-02T20:29:11.497Z,98389.41
2023-01-02T20:31:37.934Z,98381.19
2023-01-02T20:34:04.178Z,98390.56
2023-01-02T20:36:31.498Z,98386.25
2023-01-02T20:38:57.743Z,98396.34
2023-01-02T20:41:24.229Z,98395.16
2023-01-02T20:43:50.501Z,98401.00
2023-01-02T20:46:16.762Z,98392.34
2023-01-02T20:48:43.949Z,98398.13
2023-01-02T20:51:10.243Z,98404.09
2023-01-02T20:53:37.533Z,98400.19
2023-01-02T20:56:03.887Z,98404.00
2023-01-02T20:58:30.197Z,98409.09
2023-01-02T21:00:56.874Z,98414.19
2023-01-02T21:03:23.315Z,98423.06
2023-01-02T21:05:49.677Z,98418.50
2023-01-02T21:08:15.933Z,98420.38
2023-01-02T21:10:42.224Z,98412.34
2023-01-02T21:13:09.105Z,98420.63
2023-01-02T21:15:35.446Z,98421.44
2023-01-02T21:18:01.994Z,98432.16
2023-01-02T21:20:28.906Z,98427.63
2023-01-02T21:22:55.239Z,98437.78
2023-01-02T21:25:21.566Z,98421.44
2023-01-02T21:27:47.850Z,98435.09
2023-01-02T21:30:14.123Z,98433.50
2023-01-02T21:32:40.364Z,98438.84
2023-01-02T21:35:07.513Z,98443.41
2023-01-02T21:37:33.991Z,98450.88
2023-01-02T21:40:00.305Z,98452.19
2023-01-02T21:42:26.608Z,98446.03
2023-01-02T21:44:52.902Z,98460.22
2023-01-02T21:47:19.277Z,98460.22
2023-01-02T21:49:45.579Z,98463.72
2023-01-02T21:52:11.829Z,98470.94
2023-01-02T21:54:38.163Z,98463.97
2023-01-02T21:57:04.422Z,98466.66
2023-01-02T21:59:30.677Z,98467.47
2023-01-02T22:01:57.384Z,98469.34
2023-01-02T22:04:23.958Z,98475.78
2023-01-02T22:07:30.094Z,98477.38
2023-01-02T22:09:37.114Z,98491.38
2023-01-02T22:12:04.849Z,98480.63
2023-01-02T22:14:31.155Z,98481.44
2023-01-02T22:16:57.463Z,98487.34
2023-01-02T22:19:25.021Z,98498.06
2023-01-02T22:21:51.292Z,98494.59
2023-01-02T22:24:17.546Z,98505.34
2023-01-02T22:26:43.846Z,98510.69
2023-01-02T22:29:10.159Z,98515.00
2023-01-02T22:31:36.510Z,98516.84
2023-01-02T22:34:02.955Z,98517.69
2023-01-02T22:36:29.455Z,98517.69
2023-01-02T22:39:26.426Z,98522.22
2023-01-02T22:41:43.058Z,98526.78
2023-01-02T22:44:09.343Z,98524.91
2023-01-02T22:46:35.746Z,98527.56
2023-01-02T22:49:02.096Z,98529.22
2023-01-02T22:51:57.597Z,98531.09
2023-01-02T22:54:15.635Z,98528.41
2023-01-02T22:56:42.027Z,98522.22
2023-01-02T22:59:08.385Z,98533.75
2023-01-02T23:01:38.294Z,98536.19
2023-01-02T23:04:04.688Z,98544.81
2023-01-02T23:06:30.995Z,98541.88
2023-01-02T23:08:57.660Z,98548.88
2023-01-02T23:11:24.710Z,98549.34
2023-01-02T23:13:56.813Z,98563.84
2023-01-02T23:16:23.459Z,98560.00
2023-01-02T23:18:56.267Z,98562.13
2023-01-02T23:21:23.322Z,98568.75
2023-01-02T23:23:49.942Z,98558.22
2023-01-02T23:26:16.243Z,98562.94
2023-01-02T23:31:30.006Z,98554.56
2023-01-02T23:33:56.421Z,98560.34
2023-01-02T23:36:22.783Z,98554.31
2023-01-02T23:38:49.437Z,98546.66
2023-01-02T23:41:15.723Z,98546.50
2023-01-02T23:43:42.003Z,98552.03
2023-01-02T23:46:08.323Z,98545.22
2023-01-02T23:48:37.671Z,98552.81
2023-01-02T23:51:03.938Z,98550.56
2023-01-02T23:53:30.236Z,98556.53
2023-01-02T23:55:56.530Z,98552.38
2023-01-02T23:58:23.508Z,98563.47
